Time;durP1;ratioP1;P1;durP2;ratioP2;P2;SDS_P1;SDS_P2;PMS_P1;PMS_P2;Temp;Humidity;BMP_temperature;BMP_pressure;BME280_temperature;BME280_humidity;BME280_pressure;Samples;Min_cycle;Max_cycle;Signal;HPM_P1;HPM_P2
2024/01/29 00:01:12;;;;;;;;;;;;;;;4.73;70.07;102909.72;5099920;28;20377;-79
2024/01/29 00:04:02;;;;;;;;;;;;;;;5.01;69.49;102905.72;5098362;28;19916;-77
2024/01/29 00:06:51;;;;;;;;;;;;;;;4.78;70.34;102906.38;5095860;28;19916;-78
2024/01/29 00:09:41;;;;;;;;;;;;;;;4.79;71.07;102912.59;5093102;28;19916;-78
2024/01/29 00:12:33;;;;;;;;;;;;;;;4.76;69.69;102913.88;5098174;28;19912;-77
2024/01/29 00:15:22;;;;;;;;;;;;;;;4.77;70.10;102914.69;5095328;28;19916;-79
2024/01/29 00:18:14;;;;;;;;;;;;;;;4.53;70.14;102919.03;5093838;28;19924;-78
2024/01/29 00:21:07;;;;;;;;;;;;;;;4.50;69.48;102909.53;5097100;28;20283;-78
2024/01/29 00:24:00;;;;;;;;;;;;;;;4.41;70.37;102918.97;5094946;28;19912;-77
2024/01/29 00:26:50;;;;;;;;;;;;;;;4.30;69.95;102914.28;5095929;28;19916;-79
2024/01/29 00:29:47;;;;;;;;;;;;;;;4.34;70.46;102911.97;5095982;28;20384;-80
2024/01/29 00:32:39;;;;;;;;;;;;;;;4.40;70.40;102913.78;5093407;28;20293;-77
2024/01/29 00:35:31;;;;;;;;;;;;;;;4.32;70.40;102905.97;5097317;28;19912;-77
2024/01/29 00:38:21;;;;;;;;;;;;;;;4.27;70.81;102904.75;5095224;28;19915;-78
2024/01/29 00:41:12;;;;;;;;;;;;;;;4.34;70.83;102903.88;5093066;28;19916;-77
2024/01/29 00:44:04;;;;;;;;;;;;;;;4.35;70.89;102908.22;5096998;28;19915;-78
2024/01/29 00:46:51;;;;;;;;;;;;;;;4.33;70.52;102903.06;5093861;28;20302;-80
2024/01/29 00:49:43;;;;;;;;;;;;;;;4.30;70.48;102898.13;5092588;28;19916;-79
2024/01/29 00:52:33;;;;;;;;;;;;;;;4.27;71.26;102904.75;5096570;28;19912;-76
2024/01/29 00:55:25;;;;;;;;;;;;;;;4.41;72.30;102905.47;5093880;28;19912;-78
2024/01/29 00:58:14;;;;;;;;;;;;;;;4.39;70.57;102895.97;5097784;28;20288;-78
2024/01/29 01:01:06;;;;;;;;;;;;;;;4.32;68.97;102902.22;5095485;28;19916;-78
2024/01/29 01:03:56;;;;;;;;;;;;;;;4.17;69.29;102904.41;5098951;28;19915;-78
2024/01/29 01:06:45;;;;;;;;;;;;;;;4.14;70.53;102904.03;5095571;28;19916;-78
2024/01/29 01:09:35;;;;;;;;;;;;;;;4.20;71.11;102903.16;5094685;28;19916;-79
2024/01/29 01:12:24;;;;;;;;;;;;;;;4.24;70.81;102897.13;5092816;28;20292;-79
2024/01/29 01:15:16;;;;;;;;;;;;;;;4.34;70.87;102898.50;5096472;28;19928;-79
2024/01/29 01:18:05;;;;;;;;;;;;;;;4.26;71.24;102902.28;5092326;28;19916;-79
2024/01/29 01:20:57;;;;;;;;;;;;;;;4.30;71.55;102898.13;5097496;28;19916;-79
2024/01/29 01:23:49;;;;;;;;;;;;;;;4.32;70.54;102896.84;5095509;28;19912;-79
2024/01/29 01:26:41;;;;;;;;;;;;;;;4.18;69.95;102900.69;5093055;28;19912;-80
2024/01/29 01:29:33;;;;;;;;;;;;;;;4.18;70.74;102906.06;5098610;28;19919;-79
2024/01/29 01:32:25;;;;;;;;;;;;;;;4.19;70.09;102915.81;5094931;28;19912;-78
2024/01/29 01:35:17;;;;;;;;;;;;;;;4.32;70.25;102913.00;5091919;28;19912;-78
2024/01/29 01:38:07;;;;;;;;;;;;;;;4.42;69.26;102917.88;5091896;28;19915;-78
2024/01/29 01:40:59;;;;;;;;;;;;;;;4.51;68.12;102913.91;5098655;28;19916;-77
2024/01/29 01:43:51;;;;;;;;;;;;;;;4.44;68.54;102912.28;5091736;28;19916;-78
2024/01/29 01:46:41;;;;;;;;;;;;;;;4.44;69.64;102909.59;5095044;28;19912;-79
2024/01/29 01:49:33;;;;;;;;;;;;;;;4.36;69.83;102913.41;5098460;28;20380;-78
2024/01/29 01:52:25;;;;;;;;;;;;;;;4.29;69.05;102910.75;5096919;28;19912;-78
2024/01/29 01:55:18;;;;;;;;;;;;;;;4.06;70.15;102907.00;5094179;28;19916;-79
2024/01/29 01:58:06;;;;;;;;;;;;;;;3.92;70.46;102903.56;5091558;28;19916;-78
2024/01/29 02:00:58;;;;;;;;;;;;;;;3.84;70.90;102901.13;5096215;28;19912;-78
2024/01/29 02:03:48;;;;;;;;;;;;;;;3.80;72.43;102894.53;5094483;28;20293;-78
2024/01/29 02:06:35;;;;;;;;;;;;;;;3.73;71.98;102891.88;5091948;28;19919;-78
2024/01/29 02:09:24;;;;;;;;;;;;;;;3.70;73.49;102892.31;5095833;28;20373;-78
2024/01/29 02:12:17;;;;;;;;;;;;;;;3.83;73.06;102897.63;5093996;28;19911;-79
2024/01/29 02:15:09;;;;;;;;;;;;;;;3.80;73.31;102898.06;5091319;28;20377;-78
2024/01/29 02:18:01;;;;;;;;;;;;;;;3.80;73.26;102894.53;5092197;28;19912;-78
2024/01/29 02:20:50;;;;;;;;;;;;;;;3.84;73.33;102890.38;5092842;28;19916;-78
2024/01/29 02:23:37;;;;;;;;;;;;;;;3.78;72.56;102894.75;5096666;28;19912;-78
2024/01/29 02:26:22;;;;;;;;;;;;;;;3.72;73.29;102887.53;5094644;28;20293;-78
2024/01/29 02:29:13;;;;;;;;;;;;;;;3.75;73.88;102887.13;5092469;28;19916;-78
2024/01/29 02:32:05;;;;;;;;;;;;;;;3.76;74.63;102885.22;5096344;28;19916;-77
2024/01/29 02:34:57;;;;;;;;;;;;;;;3.83;74.62;102886.03;5097374;28;19912;-78
2024/01/29 02:37:47;;;;;;;;;;;;;;;3.72;75.17;102886.72;5095510;28;19912;-78
2024/01/29 02:40:39;;;;;;;;;;;;;;;3.65;74.25;102881.38;5099290;28;19915;-78
2024/01/29 02:43:31;;;;;;;;;;;;;;;3.73;73.87;102878.44;5097214;28;19916;-78
2024/01/29 02:46:23;;;;;;;;;;;;;;;3.85;73.48;102874.03;5099370;28;19912;-78
2024/01/29 02:49:15;;;;;;;;;;;;;;;3.85;73.39;102882.09;5098409;28;19920;-77
2024/01/29 02:52:07;;;;;;;;;;;;;;;4.04;73.44;102879.47;5096796;28;19912;-78
2024/01/29 02:54:56;;;;;;;;;;;;;;;4.11;73.30;102878.38;5099143;28;19912;-77
2024/01/29 02:57:48;;;;;;;;;;;;;;;4.05;73.84;102879.25;5095656;28;19931;-78
2024/01/29 03:00:40;;;;;;;;;;;;;;;3.98;73.87;102874.94;5095086;28;19912;-79
2024/01/29 03:03:35;;;;;;;;;;;;;;;3.86;74.10;102880.19;5099276;28;20392;-78
2024/01/29 03:06:27;;;;;;;;;;;;;;;3.95;74.10;102878.91;5095904;28;19912;-78
2024/01/29 03:09:19;;;;;;;;;;;;;;;3.96;73.70;102869.81;5094463;28;19939;-78
2024/01/29 03:12:11;;;;;;;;;;;;;;;3.97;73.90;102865.22;5098475;28;19912;-77
2024/01/29 03:15:03;;;;;;;;;;;;;;;3.88;74.16;102867.34;5095230;28;20369;-79
2024/01/29 03:17:54;;;;;;;;;;;;;;;3.92;74.26;102863.19;5094682;28;19912;-79
2024/01/29 03:20:46;;;;;;;;;;;;;;;3.95;74.66;102861.94;5096670;28;19916;-77
2024/01/29 03:23:38;;;;;;;;;;;;;;;3.94;74.70;102863.81;5095065;28;20389;-77
2024/01/29 03:26:30;;;;;;;;;;;;;;;4.02;74.80;102865.38;5097624;28;19912;-78
2024/01/29 03:29:22;;;;;;;;;;;;;;;4.01;74.42;102861.91;5096044;28;19920;-78
2024/01/29 03:32:14;;;;;;;;;;;;;;;3.96;73.14;102858.22;5093842;28;20389;-79
2024/01/29 03:35:03;;;;;;;;;;;;;;;3.93;72.64;102856.78;5097387;28;20364;-78
2024/01/29 03:37:50;;;;;;;;;;;;;;;4.03;72.91;102853.59;5094481;28;19912;-78
2024/01/29 03:40:37;;;;;;;;;;;;;;;4.14;72.59;102856.41;5099049;28;19912;-79
2024/01/29 03:43:27;;;;;;;;;;;;;;;4.17;71.77;102855.94;5096551;28;19916;-78
2024/01/29 03:46:13;;;;;;;;;;;;;;;4.19;72.89;102861.13;5094452;28;19912;-79
2024/01/29 03:49:05;;;;;;;;;;;;;;;4.11;71.73;102862.25;5098781;28;19920;-77
2024/01/29 03:51:55;;;;;;;;;;;;;;;4.12;72.43;102858.47;5096744;28;19916;-77
2024/01/29 03:54:47;;;;;;;;;;;;;;;4.09;72.21;102858.94;5093831;28;19912;-78
2024/01/29 03:57:36;;;;;;;;;;;;;;;4.09;72.35;102858.94;5094527;28;20304;-77
2024/01/29 04:00:26;;;;;;;;;;;;;;;4.08;72.99;102856.44;5095932;28;19912;-77
2024/01/29 04:03:15;;;;;;;;;;;;;;;4.17;72.78;102855.94;5093578;28;19916;-76
2024/01/29 04:06:05;;;;;;;;;;;;;;;4.20;71.89;102854.69;5097327;28;19915;-77
2024/01/29 04:08:54;;;;;;;;;;;;;;;4.28;71.79;102852.53;5099871;28;19916;-78
2024/01/29 04:11:46;;;;;;;;;;;;;;;4.25;72.44;102852.19;5093374;28;19916;-77
2024/01/29 04:14:38;;;;;;;;;;;;;;;4.28;73.42;102852.53;5096810;28;20324;-79
2024/01/29 04:17:30;;;;;;;;;;;;;;;4.25;72.83;102847.63;5095082;28;19912;-78
2024/01/29 04:20:17;;;;;;;;;;;;;;;4.36;72.66;102851.47;5098331;28;19912;-78
2024/01/29 04:23:09;;;;;;;;;;;;;;;4.13;73.24;102852.06;5096091;28;19912;-78
2024/01/29 04:26:01;;;;;;;;;;;;;;;3.96;73.66;102850.97;5093634;28;19916;-77
2024/01/29 04:28:51;;;;;;;;;;;;;;;4.15;74.16;102851.84;5097505;28;19915;-77
2024/01/29 04:31:40;;;;;;;;;;;;;;;4.22;74.14;102856.13;5095509;28;19912;-77
2024/01/29 04:34:32;;;;;;;;;;;;;;;4.24;73.82;102853.22;5093231;28;19912;-76
2024/01/29 04:37:24;;;;;;;;;;;;;;;4.18;72.62;102857.59;5094927;28;19920;-77
2024/01/29 04:40:13;;;;;;;;;;;;;;;4.16;72.98;102853.50;5094753;28;19916;-79
2024/01/29 04:43:05;;;;;;;;;;;;;;;4.12;74.07;102855.78;5092539;28;20363;-78
2024/01/29 04:45:57;;;;;;;;;;;;;;;4.02;72.75;102855.44;5096070;28;19916;-77
2024/01/29 04:48:49;;;;;;;;;;;;;;;4.02;73.84;102858.13;5093833;28;19912;-77
2024/01/29 04:51:40;;;;;;;;;;;;;;;3.94;74.25;102858.41;5097626;28;19912;-78
2024/01/29 04:54:30;;;;;;;;;;;;;;;4.11;74.34;102859.53;5095286;28;19915;-78
2024/01/29 04:57:22;;;;;;;;;;;;;;;4.02;74.32;102846.53;5094256;28;19916;-77
2024/01/29 05:00:11;;;;;;;;;;;;;;;4.11;74.32;102858.72;5096833;28;19912;-78
2024/01/29 05:03:03;;;;;;;;;;;;;;;4.16;74.06;102859.72;5094392;28;19912;-76
2024/01/29 05:05:55;;;;;;;;;;;;;;;4.27;73.71;102861.66;5092125;28;19911;-77
2024/01/29 05:08:45;;;;;;;;;;;;;;;4.29;73.69;102859.59;5095523;28;19912;-78
2024/01/29 05:11:37;;;;;;;;;;;;;;;4.28;73.25;102866.00;5098625;28;19912;-78
2024/01/29 05:14:27;;;;;;;;;;;;;;;4.24;73.27;102862.13;5098104;28;20289;-77
2024/01/29 05:17:19;;;;;;;;;;;;;;;4.21;73.56;102859.88;5094886;28;19912;-77
2024/01/29 05:20:11;;;;;;;;;;;;;;;4.21;74.34;102862.56;5093209;28;19912;-78
2024/01/29 05:23:00;;;;;;;;;;;;;;;4.25;73.81;102869.16;5097356;28;19916;-76
2024/01/29 05:25:50;;;;;;;;;;;;;;;4.30;74.20;102874.72;5094269;28;19912;-78
2024/01/29 05:28:39;;;;;;;;;;;;;;;4.36;74.36;102874.88;5093356;28;19912;-79
2024/01/29 05:31:31;;;;;;;;;;;;;;;4.38;73.74;102878.16;5097206;28;19916;-79
2024/01/29 05:34:23;;;;;;;;;;;;;;;4.25;73.20;102877.22;5092921;28;19916;-77
2024/01/29 05:37:12;;;;;;;;;;;;;;;4.13;73.14;102876.28;5084267;28;19967;-78
2024/01/29 05:40:07;;;;;;;;;;;;;;;4.02;72.75;102873.47;5100310;28;19916;-77
2024/01/29 05:42:59;;;;;;;;;;;;;;;4.09;73.46;102877.78;5093825;28;19912;-79
2024/01/29 05:45:51;;;;;;;;;;;;;;;4.04;73.53;102874.91;5097245;28;19916;-78
2024/01/29 05:48:40;;;;;;;;;;;;;;;4.11;72.91;102870.31;5093856;28;19912;-77
2024/01/29 05:51:32;;;;;;;;;;;;;;;4.04;72.88;102874.09;5098353;28;19916;-78
2024/01/29 05:54:21;;;;;;;;;;;;;;;4.01;74.18;102872.66;5090620;28;20577;-78
2024/01/29 05:57:16;;;;;;;;;;;;;;;4.13;74.17;102880.84;5095247;28;19916;-78
2024/01/29 06:00:09;;;;;;;;;;;;;;;4.17;74.09;102879.34;5091505;28;19916;-77
2024/01/29 06:03:01;;;;;;;;;;;;;;;4.16;74.04;102873.19;5090600;28;19920;-77
2024/01/29 06:05:53;;;;;;;;;;;;;;;4.32;73.90;102883.38;5093843;28;19912;-77
2024/01/29 06:08:42;;;;;;;;;;;;;;;4.22;73.53;102882.22;5100685;28;20395;-79
2024/01/29 06:11:34;;;;;;;;;;;;;;;4.06;74.05;102875.53;5098730;28;20420;-78
2024/01/29 06:14:26;;;;;;;;;;;;;;;3.99;73.27;102879.28;5096116;28;20396;-78
2024/01/29 06:17:18;;;;;;;;;;;;;;;3.94;73.50;102876.44;5098057;28;19912;-79
2024/01/29 06:20:12;;;;;;;;;;;;;;;3.96;74.00;102880.56;5097940;28;19911;-78
2024/01/29 06:23:01;;;;;;;;;;;;;;;3.92;73.76;102887.41;5101373;28;19916;-78
2024/01/29 06:25:53;;;;;;;;;;;;;;;4.02;75.83;102890.44;5103497;28;20300;-77
2024/01/29 06:28:45;;;;;;;;;;;;;;;4.17;75.98;102893.66;5099264;28;19912;-80
2024/01/29 06:31:39;;;;;;;;;;;;;;;4.48;74.48;102884.69;5100069;28;19916;-77
2024/01/29 06:34:31;;;;;;;;;;;;;;;4.90;72.11;102883.03;5098489;28;19916;-79
2024/01/29 06:37:23;;;;;;;;;;;;;;;4.87;69.32;102883.50;5094122;28;20292;-77
2024/01/29 06:40:12;;;;;;;;;;;;;;;4.64;69.83;102886.00;5101940;28;19912;-77
2024/01/29 06:43:02;;;;;;;;;;;;;;;4.41;70.43;102883.94;5097552;28;19920;-77
2024/01/29 06:45:52;;;;;;;;;;;;;;;4.26;71.64;102880.75;5095056;28;19912;-77
2024/01/29 06:48:44;;;;;;;;;;;;;;;4.31;71.16;102883.63;5102318;28;19915;-77
2024/01/29 06:51:36;;;;;;;;;;;;;;;4.58;74.90;102894.97;5097313;28;19915;-78
2024/01/29 06:54:28;;;;;;;;;;;;;;;4.35;71.82;102886.69;5100501;28;19912;-78
2024/01/29 06:57:21;;;;;;;;;;;;;;;4.17;71.65;102893.66;5096526;28;19916;-79
2024/01/29 07:00:10;;;;;;;;;;;;;;;4.10;71.46;102886.69;5094952;28;20377;-80
2024/01/29 07:03:00;;;;;;;;;;;;;;;4.13;72.11;102888.91;5097710;28;19912;-79
2024/01/29 07:05:55;;;;;;;;;;;;;;;4.08;71.33;102886.06;5095311;28;19912;-81
2024/01/29 07:08:52;;;;;;;;;;;;;;;4.07;71.21;102882.53;5092853;28;19911;-78
2024/01/29 07:11:44;;;;;;;;;;;;;;;3.95;71.37;102895.06;5097411;28;19916;-78
2024/01/29 07:14:35;;;;;;;;;;;;;;;4.19;73.83;102890.75;5095461;28;19916;-79
2024/01/29 07:17:27;;;;;;;;;;;;;;;4.16;71.15;102892.03;5093068;28;19919;-79
2024/01/29 07:20:19;;;;;;;;;;;;;;;3.87;71.75;102888.06;5092606;28;19912;-79
2024/01/29 07:23:15;;;;;;;;;;;;;;;3.86;71.54;102885.56;5087483;28;19916;-79
2024/01/29 07:26:06;;;;;;;;;;;;;;;3.84;71.34;102890.38;5093635;28;19912;-79
2024/01/29 07:28:58;;;;;;;;;;;;;;;3.90;71.65;102886.81;5090851;28;19916;-80
2024/01/29 07:31:50;;;;;;;;;;;;;;;3.88;72.23;102886.19;5090469;28;19920;-79
2024/01/29 07:34:42;;;;;;;;;;;;;;;4.81;75.19;102895.16;5095909;28;19911;-79
2024/01/29 07:37:34;;;;;;;;;;;;;;;5.03;74.97;102898.22;5094995;28;19912;-78
2024/01/29 07:40:26;;;;;;;;;;;;;;;4.57;70.07;102898.72;5097940;28;19915;-79
2024/01/29 07:43:18;;;;;;;;;;;;;;;4.11;69.92;102899.94;5094995;28;19912;-78
2024/01/29 07:46:10;;;;;;;;;;;;;;;3.93;71.14;102899.81;5088751;28;19920;-79
2024/01/29 07:49:01;;;;;;;;;;;;;;;3.84;72.13;102895.75;5097457;28;19916;-78
2024/01/29 07:51:53;;;;;;;;;;;;;;;3.78;73.05;102893.94;5092589;28;19920;-79
2024/01/29 07:54:45;;;;;;;;;;;;;;;3.94;72.23;102890.72;5090589;28;20403;-78
2024/01/29 07:57:37;;;;;;;;;;;;;;;3.81;73.00;102893.47;5095354;28;19916;-77
2024/01/29 08:00:29;;;;;;;;;;;;;;;4.24;76.03;102890.91;5090462;28;19916;-78
2024/01/29 08:03:21;;;;;;;;;;;;;;;4.42;75.38;102895.53;5101371;28;19920;-78
2024/01/29 08:06:13;;;;;;;;;;;;;;;4.66;74.10;102894.69;5101492;28;20292;-79
2024/01/29 08:09:05;;;;;;;;;;;;;;;5.11;71.70;102896.06;5096224;28;19920;-79
2024/01/29 08:11:56;;;;;;;;;;;;;;;5.02;67.60;102892.03;5099146;28;20380;-78
2024/01/29 08:14:46;;;;;;;;;;;;;;;4.74;67.24;102886.31;5093669;28;19912;-77
2024/01/29 08:17:38;;;;;;;;;;;;;;;4.72;67.74;102896.50;5093856;28;19911;-80
2024/01/29 08:20:27;;;;;;;;;;;;;;;4.40;66.19;102895.75;5096394;28;19923;-80
2024/01/29 08:23:17;;;;;;;;;;;;;;;4.11;67.24;102889.16;5093269;28;19912;-81
2024/01/29 08:26:09;;;;;;;;;;;;;;;4.63;69.74;102904.03;5092684;28;19912;-80
2024/01/29 08:29:00;;;;;;;;;;;;;;;4.23;68.30;102897.34;5090851;28;19924;-80
2024/01/29 08:31:52;;;;;;;;;;;;;;;3.92;69.64;102900.03;5088895;28;19916;-79
2024/01/29 08:34:41;;;;;;;;;;;;;;;4.21;67.23;102899.44;5099589;28;19912;-80
2024/01/29 08:37:33;;;;;;;;;;;;;;;3.59;69.95;102902.94;5090028;28;19912;-80
2024/01/29 08:40:25;;;;;;;;;;;;;;;3.47;70.79;102892.03;5093228;28;19916;-80
2024/01/29 08:43:17;;;;;;;;;;;;;;;3.26;69.50;102900.38;5092990;28;20384;-80
2024/01/29 08:46:10;;;;;;;;;;;;;;;3.23;70.42;102896.28;5094410;28;19912;-80
2024/01/29 08:49:03;;;;;;;;;;;;;;;3.20;70.77;102899.38;5099385;28;19908;-79
2024/01/29 08:51:55;;;;;;;;;;;;;;;2.95;71.65;102903.78;5098885;28;19919;-82
2024/01/29 08:54:47;;;;;;;;;;;;;;;2.96;72.57;102897.38;5092575;28;19920;-82
2024/01/29 08:57:39;;;;;;;;;;;;;;;3.36;72.36;102896.19;5093622;28;19915;-80
2024/01/29 09:00:28;;;;;;;;;;;;;;;3.19;72.43;102900.44;5095003;28;19912;-81
2024/01/29 09:03:20;;;;;;;;;;;;;;;3.05;73.12;102900.69;5092345;28;19916;-80
2024/01/29 09:06:10;;;;;;;;;;;;;;;3.07;73.63;102901.28;5095871;28;20365;-81
2024/01/29 09:09:00;;;;;;;;;;;;;;;2.93;74.23;102901.31;5093924;28;20292;-79
2024/01/29 09:11:51;;;;;;;;;;;;;;;3.07;74.59;102902.09;5097878;28;20385;-80
2024/01/29 09:14:41;;;;;;;;;;;;;;;3.14;75.18;102902.09;5095685;28;19915;-80
2024/01/29 09:17:33;;;;;;;;;;;;;;;3.10;75.96;102903.56;5093150;28;19912;-81
2024/01/29 09:20:22;;;;;;;;;;;;;;;3.17;75.51;102907.88;5096902;28;19912;-80
2024/01/29 09:23:14;;;;;;;;;;;;;;;3.24;75.40;102915.91;5094848;28;19916;-80
2024/01/29 09:26:06;;;;;;;;;;;;;;;3.18;74.35;102922.97;5097412;28;20280;-81
2024/01/29 09:28:58;;;;;;;;;;;;;;;3.40;74.00;102923.50;5095195;28;19912;-82
2024/01/29 09:31:50;;;;;;;;;;;;;;;3.29;73.48;102922.31;5093509;28;19916;-82
2024/01/29 09:34:41;;;;;;;;;;;;;;;3.32;73.42;102923.72;5090391;28;19916;-79
2024/01/29 09:37:29;;;;;;;;;;;;;;;3.27;73.51;102924.38;5093461;28;20293;-80
2024/01/29 09:40:18;;;;;;;;;;;;;;;3.22;73.71;102926.03;5086348;28;19912;-80
2024/01/29 09:43:12;;;;;;;;;;;;;;;3.37;73.89;102927.44;5099214;28;19912;-79
2024/01/29 09:46:04;;;;;;;;;;;;;;;3.46;74.22;102928.00;5097387;28;19929;-80
2024/01/29 09:48:54;;;;;;;;;;;;;;;3.47;73.87;102924.28;5094666;28;19912;-78
2024/01/29 09:51:46;;;;;;;;;;;;;;;5.91;76.63;102929.09;5100188;28;19916;-80
2024/01/29 09:54:35;;;;;;;;;;;;;;;4.58;69.56;102929.97;5097478;28;19916;-80
2024/01/29 09:57:30;;;;;;;;;;;;;;;4.07;70.17;102922.91;5095399;28;19916;-80
2024/01/29 10:00:21;;;;;;;;;;;;;;;4.00;71.68;102924.84;5103031;28;20328;-79
2024/01/29 10:03:15;;;;;;;;;;;;;;;3.96;72.23;102930.88;5101824;28;19912;-79
2024/01/29 10:06:07;;;;;;;;;;;;;;;3.94;72.86;102920.31;5099115;28;19915;-80
2024/01/29 10:08:57;;;;;;;;;;;;;;;3.96;73.03;102933.56;5096495;28;19911;-80
2024/01/29 10:11:50;;;;;;;;;;;;;;;4.03;72.57;102927.09;5095870;28;19916;-80
2024/01/29 10:14:43;;;;;;;;;;;;;;;4.00;72.68;102924.84;5099556;28;19916;-80
2024/01/29 10:17:35;;;;;;;;;;;;;;;4.88;72.77;102919.31;5096365;28;19912;-80
2024/01/29 10:20:27;;;;;;;;;;;;;;;4.37;70.55;102919.63;5088339;28;19912;-80
2024/01/29 10:23:16;;;;;;;;;;;;;;;4.21;71.25;102924.50;5078288;28;19913;-80
2024/01/29 10:26:06;;;;;;;;;;;;;;;4.21;71.56;102916.41;5075994;28;20386;-81
2024/01/29 10:29:05;;;;;;;;;;;;;;;4.17;72.29;102915.19;5080369;28;19912;-80
2024/01/29 10:31:59;;;;;;;;;;;;;;;4.07;72.16;102919.41;5077549;28;19916;-80
2024/01/29 10:34:51;;;;;;;;;;;;;;;3.96;71.95;102920.94;5074746;28;19916;-80
2024/01/29 10:37:44;;;;;;;;;;;;;;;3.97;72.47;102919.88;5075562;28;19916;-80
2024/01/29 10:40:35;;;;;;;;;;;;;;;3.95;73.01;102921.97;5076642;28;19916;-80
2024/01/29 10:43:31;;;;;;;;;;;;;;;4.03;72.16;102916.31;5074125;28;19912;-80
2024/01/29 10:46:21;;;;;;;;;;;;;;;4.14;72.72;102926.41;5077324;28;19943;-80
2024/01/29 10:49:13;;;;;;;;;;;;;;;4.84;72.84;102927.03;5077979;28;20567;-80
2024/01/29 10:52:02;;;;;;;;;;;;;;;4.32;71.21;102922.94;5096936;28;19915;-80
2024/01/29 10:54:55;;;;;;;;;;;;;;;4.57;70.66;102920.28;5092057;28;19912;-80
2024/01/29 10:57:47;;;;;;;;;;;;;;;4.37;71.69;102915.03;5093216;28;19916;-81
2024/01/29 11:00:37;;;;;;;;;;;;;;;4.32;71.68;102922.94;5096702;28;19920;-80
2024/01/29 11:03:29;;;;;;;;;;;;;;;4.32;72.04;102917.56;5095391;28;19916;-79
2024/01/29 11:06:24;;;;;;;;;;;;;;;4.22;72.14;102918.03;5093125;28;19916;-80
2024/01/29 11:09:17;;;;;;;;;;;;;;;4.31;72.15;102918.63;5097486;28;19916;-81
2024/01/29 11:12:09;;;;;;;;;;;;;;;4.65;74.01;102922.66;5095062;28;19920;-81
2024/01/29 11:15:06;;;;;;;;;;;;;;;4.39;71.35;102921.03;5097329;28;20384;-82
2024/01/29 11:17:57;;;;;;;;;;;;;;;4.37;71.66;102917.72;5093657;28;19912;-81
2024/01/29 11:20:49;;;;;;;;;;;;;;;4.41;71.28;102915.44;5086417;28;20308;-83
2024/01/29 11:23:45;;;;;;;;;;;;;;;4.41;71.82;102912.75;5097425;28;20495;-83
2024/01/29 11:26:39;;;;;;;;;;;;;;;4.30;72.41;102908.88;5094828;28;19916;-82
2024/01/29 11:29:36;;;;;;;;;;;;;;;4.37;72.65;102914.22;5103024;27;19912;-83
2024/01/29 11:32:29;;;;;;;;;;;;;;;4.44;72.25;102904.22;5092799;28;19916;-83
2024/01/29 11:35:23;;;;;;;;;;;;;;;4.63;72.48;102914.81;5096165;28;19912;-84
2024/01/29 11:38:18;;;;;;;;;;;;;;;4.60;71.80;102900.97;5096162;28;19912;-84
2024/01/29 11:41:10;;;;;;;;;;;;;;;4.64;71.66;102894.91;5097208;28;20372;-82
2024/01/29 11:43:59;;;;;;;;;;;;;;;4.99;70.84;102897.84;5100545;28;19912;-81
2024/01/29 11:46:51;;;;;;;;;;;;;;;4.93;71.04;102896.03;5081502;28;19912;-81
2024/01/29 11:49:41;;;;;;;;;;;;;;;4.98;71.22;102889.97;5093788;28;19911;-83
2024/01/29 11:52:31;;;;;;;;;;;;;;;5.02;70.97;102889.34;5098087;28;19920;-83
2024/01/29 11:55:26;;;;;;;;;;;;;;;5.07;69.59;102881.41;5099538;28;19915;-82
2024/01/29 11:58:19;;;;;;;;;;;;;;;5.09;70.04;102881.97;5093248;28;20318;-81
2024/01/29 12:01:09;;;;;;;;;;;;;;;5.32;69.87;102883.16;5096819;28;19916;-82
2024/01/29 12:04:01;;;;;;;;;;;;;;;5.35;69.40;102880.00;5094844;28;19916;-82
2024/01/29 12:06:53;;;;;;;;;;;;;;;5.39;68.82;102870.41;5092294;28;20388;-81
2024/01/29 12:09:42;;;;;;;;;;;;;;;5.45;68.99;102874.88;5096460;28;19912;-81
2024/01/29 12:12:30;;;;;;;;;;;;;;;5.52;68.35;102867.53;5093722;28;19916;-83
2024/01/29 12:15:21;;;;;;;;;;;;;;;5.65;68.79;102863.81;5097711;28;19916;-80
2024/01/29 12:18:18;;;;;;;;;;;;;;;5.62;68.35;102862.41;5092409;28;20314;-82
2024/01/29 12:21:10;;;;;;;;;;;;;;;5.66;68.79;102860.91;5093258;28;20376;-81
2024/01/29 12:24:00;;;;;;;;;;;;;;;6.09;69.82;102852.59;5096810;28;19938;-81
2024/01/29 12:26:52;;;;;;;;;;;;;;;6.06;68.08;102852.22;5094574;28;19916;-82
2024/01/29 12:29:44;;;;;;;;;;;;;;;5.98;67.64;102848.81;5098337;28;19915;-82
2024/01/29 12:32:36;;;;;;;;;;;;;;;5.89;67.01;102847.50;5095963;28;19919;-81
2024/01/29 12:35:29;;;;;;;;;;;;;;;5.92;66.95;102844.34;5093648;28;19912;-82
2024/01/29 12:38:22;;;;;;;;;;;;;;;6.00;67.34;102840.47;5097268;28;19911;-81
2024/01/29 12:41:18;;;;;;;;;;;;;;;6.15;67.34;102842.72;5094981;28;19912;-81
2024/01/29 12:44:13;;;;;;;;;;;;;;;6.04;66.85;102835.44;5088088;28;19916;-81
2024/01/29 12:47:05;;;;;;;;;;;;;;;6.08;67.29;102831.22;5093742;28;19912;-82
2024/01/29 12:49:57;;;;;;;;;;;;;;;6.15;67.08;102835.44;5098136;28;20380;-82
2024/01/29 12:52:50;;;;;;;;;;;;;;;6.21;66.73;102836.38;5094029;28;19920;-81
2024/01/29 12:55:42;;;;;;;;;;;;;;;6.14;67.23;102835.69;5094722;28;19912;-82
2024/01/29 12:58:31;;;;;;;;;;;;;;;6.31;67.83;102837.47;5092039;28;19911;-82
2024/01/29 13:01:18;;;;;;;;;;;;;;;7.24;68.22;102836.50;5099233;28;20281;-81
2024/01/29 13:04:07;;;;;;;;;;;;;;;7.15;65.69;102824.41;5096614;28;19916;-82
2024/01/29 13:06:59;;;;;;;;;;;;;;;7.11;64.90;102826.75;5084495;28;19912;-83
2024/01/29 13:09:49;;;;;;;;;;;;;;;7.01;64.39;102820.34;5090887;28;19912;-84
2024/01/29 13:12:44;;;;;;;;;;;;;;;7.04;64.29;102820.69;5096270;28;19915;-82
2024/01/29 13:15:33;;;;;;;;;;;;;;;6.97;64.31;102819.16;5095523;28;19912;-81
2024/01/29 13:18:25;;;;;;;;;;;;;;;6.84;64.63;102814.84;5085889;28;20467;-83
2024/01/29 13:21:17;;;;;;;;;;;;;;;6.96;64.96;102812.13;5094113;28;19922;-80
2024/01/29 13:24:10;;;;;;;;;;;;;;;7.17;64.56;102804.16;5099065;28;19912;-80
2024/01/29 13:26:59;;;;;;;;;;;;;;;6.87;64.69;102814.38;5088163;28;19912;-81
2024/01/29 13:29:48;;;;;;;;;;;;;;;6.77;65.13;102808.75;5086313;28;19912;-80
2024/01/29 13:32:43;;;;;;;;;;;;;;;6.84;65.39;102804.88;5099700;28;19916;-81
2024/01/29 13:35:35;;;;;;;;;;;;;;;7.07;65.55;102801.25;5099042;28;19912;-81
2024/01/29 13:38:27;;;;;;;;;;;;;;;7.26;64.94;102794.59;5094763;28;19912;-81
2024/01/29 13:41:19;;;;;;;;;;;;;;;7.22;64.58;102796.13;5092427;28;19912;-81
2024/01/29 13:44:11;;;;;;;;;;;;;;;7.33;64.07;102794.44;5094882;28;19916;-80
2024/01/29 13:47:03;;;;;;;;;;;;;;;7.54;63.90;102791.06;5093170;28;20602;-81
2024/01/29 13:49:55;;;;;;;;;;;;;;;7.61;63.14;102797.16;5084386;28;19928;-80
2024/01/29 13:52:47;;;;;;;;;;;;;;;7.58;62.96;102794.09;5095163;28;19925;-79
2024/01/29 13:55:38;;;;;;;;;;;;;;;7.71;63.04;102791.91;5095455;28;19912;-83
2024/01/29 13:58:30;;;;;;;;;;;;;;;7.87;62.56;102792.16;5103474;28;19912;-82
2024/01/29 14:01:22;;;;;;;;;;;;;;;8.01;62.00;102783.44;5083498;28;19912;-83
2024/01/29 14:04:14;;;;;;;;;;;;;;;8.08;61.42;102794.09;5094637;28;19915;-80
2024/01/29 14:07:06;;;;;;;;;;;;;;;8.17;61.64;102787.22;5094348;28;19915;-81
2024/01/29 14:09:55;;;;;;;;;;;;;;;8.26;61.04;102788.44;5100803;28;19911;-83
2024/01/29 14:12:47;;;;;;;;;;;;;;;8.27;60.76;102781.94;5103031;28;19920;-82
2024/01/29 14:15:40;;;;;;;;;;;;;;;8.19;61.13;102787.78;5102979;28;19916;-85
2024/01/29 14:18:39;;;;;;;;;;;;;;;8.06;61.39;102786.25;5090082;28;19912;-82
2024/01/29 14:21:31;;;;;;;;;;;;;;;8.11;61.45;102789.03;5094617;28;19920;-83
2024/01/29 14:24:23;;;;;;;;;;;;;;;8.22;61.07;102781.88;5100181;28;20304;-82
2024/01/29 14:27:15;;;;;;;;;;;;;;;8.33;60.98;102778.25;5097084;28;20002;-84
2024/01/29 14:30:07;;;;;;;;;;;;;;;8.44;60.25;102781.94;5097453;28;19916;-82
2024/01/29 14:32:59;;;;;;;;;;;;;;;8.52;59.92;102779.63;5104632;28;19916;-82
2024/01/29 14:35:51;;;;;;;;;;;;;;;8.54;59.89;102790.19;5104448;28;20389;-82
2024/01/29 14:38:43;;;;;;;;;;;;;;;8.49;59.98;102779.28;5104016;28;19912;-82
2024/01/29 14:41:35;;;;;;;;;;;;;;;8.47;60.23;102776.84;5104918;28;19911;-82
2024/01/29 14:44:27;;;;;;;;;;;;;;;8.55;59.92;102779.13;5104559;28;19916;-83
2024/01/29 14:47:19;;;;;;;;;;;;;;;8.39;59.64;102779.16;5097732;28;20365;-82
2024/01/29 14:50:05;;;;;;;;;;;;;;;8.47;59.79;102771.44;5105704;28;19912;-84
2024/01/29 14:53:00;;;;;;;;;;;;;;;8.38;59.84;102772.09;5101733;28;20297;-84